Time;durP1;ratioP1;P1;durP2;ratioP2;P2;SDS_P1;SDS_P2;PMS_P1;PMS_P2;Temp;Humidity;BMP_temperature;BMP_pressure;BME280_temperature;BME280_humidity;BME280_pressure;Samples;Min_cycle;Max_cycle;Signal;HPM_P1;HPM_P2
2024/01/13 00:01:46;;;;;;;4.13;2.30;;;;;;;17.74;29.42;102863.16;16103633;19;130387;-63
2024/01/13 00:07:08;;;;;;;4.22;2.15;;;;;;;17.69;29.29;102858.22;16106901;19;130456;-64
2024/01/13 00:12:30;;;;;;;5.93;2.55;;;;;;;17.66;29.63;102860.50;16118140;19;129395;-63
2024/01/13 00:17:52;;;;;;;5.10;2.85;;;;;;;17.60;29.73;102848.28;16118550;19;130462;-63
2024/01/13 00:23:14;;;;;;;5.88;2.85;;;;;;;17.53;29.57;102845.41;16117016;19;133068;-63
2024/01/13 00:28:36;;;;;;;6.97;2.58;;;;;;;17.52;29.82;102848.38;16117849;19;131087;-63
2024/01/13 00:33:58;;;;;;;8.07;2.97;;;;;;;17.48;29.87;102842.34;16120574;19;130649;-63
2024/01/13 00:39:21;;;;;;;4.38;2.60;;;;;;;17.44;29.54;102826.31;16118174;19;130785;-63
2024/01/13 00:44:43;;;;;;;4.97;2.60;;;;;;;17.41;29.94;102823.97;16119696;19;130790;-62
2024/01/13 00:50:05;;;;;;;6.35;2.38;;;;;;;17.36;29.85;102822.63;16120557;19;130334;-63
2024/01/13 00:55:27;;;;;;;5.43;2.55;;;;;;;17.34;30.10;102819.19;16120299;19;129487;-63
2024/01/13 01:00:49;;;;;;;5.55;2.25;;;;;;;17.32;29.70;102821.28;16115923;19;130246;-65
2024/01/13 01:06:11;;;;;;;3.90;2.20;;;;;;;17.30;29.98;102814.22;16114674;19;131148;-63
2024/01/13 01:11:34;;;;;;;5.20;2.30;;;;;;;17.28;30.07;102808.88;16121399;19;130467;-63
2024/01/13 01:16:56;;;;;;;4.20;2.20;;;;;;;17.24;30.00;102805.63;16116906;19;129670;-63
2024/01/13 01:22:18;;;;;;;3.63;1.90;;;;;;;17.23;30.10;102801.13;16118431;19;130054;-63
2024/01/13 01:27:40;;;;;;;3.42;2.30;;;;;;;17.21;30.01;102800.50;16114228;19;131328;-64
2024/01/13 01:33:02;;;;;;;4.93;2.10;;;;;;;17.19;29.97;102779.59;16112928;19;129264;-64
2024/01/13 01:38:25;;;;;;;5.22;2.67;;;;;;;17.18;29.64;102781.50;16114788;19;131025;-63
2024/01/13 01:44:02;;;;;;;4.38;2.20;;;;;;;17.17;29.67;102785.31;16114830;19;129262;-63
2024/01/13 01:49:25;;;;;;;5.72;2.00;;;;;;;17.15;30.10;102776.34;16113082;19;129523;-63
2024/01/13 01:54:47;;;;;;;3.78;2.13;;;;;;;17.13;29.95;102777.59;16112948;19;129770;-62
2024/01/13 02:00:10;;;;;;;4.07;1.92;;;;;;;17.12;30.11;102764.81;16117146;19;130392;-62
2024/01/13 02:05:33;;;;;;;4.15;1.98;;;;;;;17.08;30.09;102765.19;16112322;19;130725;-62
2024/01/13 02:10:55;;;;;;;3.85;2.17;;;;;;;17.08;29.98;102764.34;16113388;19;131413;-63
2024/01/13 02:16:17;;;;;;;3.17;2.28;;;;;;;17.06;30.10;102758.16;16112465;19;130723;-63
2024/01/13 02:21:39;;;;;;;2.92;1.85;;;;;;;17.02;30.02;102749.38;16115130;19;131412;-63
2024/01/13 02:27:01;;;;;;;2.90;1.75;;;;;;;17.02;30.02;102740.22;16109355;19;130044;-62
2024/01/13 02:32:23;;;;;;;3.35;1.75;;;;;;;17.00;30.04;102734.00;16111110;19;129792;-62
2024/01/13 02:37:45;;;;;;;4.53;2.33;;;;;;;16.97;30.17;102734.41;16107539;19;129992;-62
2024/01/13 02:43:07;;;;;;;4.47;1.95;;;;;;;16.95;29.76;102728.22;16113673;19;129294;-62
2024/01/13 02:48:41;;;;;;;2.45;1.50;;;;;;;16.96;29.98;102732.69;16109397;19;130859;-62
2024/01/13 02:54:04;;;;;;;5.43;1.90;;;;;;;16.92;30.19;102727.53;16105926;19;129556;-62
2024/01/13 02:59:26;;;;;;;2.65;1.55;;;;;;;16.91;29.98;102711.16;16111665;19;131502;-62
2024/01/13 03:04:48;;;;;;;2.47;1.60;;;;;;;16.88;29.85;102708.75;16108928;19;131241;-62
2024/01/13 03:10:10;;;;;;;3.35;1.75;;;;;;;16.88;30.22;102704.06;16104610;19;130512;-62
2024/01/13 03:15:32;;;;;;;2.58;1.40;;;;;;;16.86;30.31;102695.13;16106249;19;130689;-62
2024/01/13 03:20:54;;;;;;;2.35;1.52;;;;;;;16.86;29.99;102681.28;16108250;19;130246;-62
2024/01/13 03:26:15;;;;;;;2.72;1.63;;;;;;;16.88;30.04;102667.31;16108160;19;130870;-62
2024/01/13 03:31:37;;;;;;;2.85;1.70;;;;;;;16.88;30.04;102664.53;16110133;19;130191;-62
2024/01/13 03:36:59;;;;;;;1.98;1.27;;;;;;;16.87;30.01;102662.81;16107026;19;130356;-63
2024/01/13 03:42:21;;;;;;;1.50;1.20;;;;;;;16.87;30.21;102652.59;16107710;19;129791;-63
2024/01/13 03:47:43;;;;;;;1.92;1.30;;;;;;;16.87;30.07;102652.59;16110729;19;129786;-63
2024/01/13 03:53:05;;;;;;;3.28;1.50;;;;;;;16.85;30.07;102634.50;16106502;19;129809;-63
2024/01/13 03:58:27;;;;;;;1.83;1.20;;;;;;;16.82;30.31;102624.69;16104851;19;129518;-64
2024/01/13 04:03:49;;;;;;;2.65;1.60;;;;;;;16.81;29.97;102620.22;16107548;19;129711;-63
2024/01/13 04:09:12;;;;;;;2.55;1.20;;;;;;;16.79;29.99;102602.97;16103822;19;129478;-63
2024/01/13 04:14:34;;;;;;;1.65;1.33;;;;;;;16.76;30.00;102606.97;16104677;19;129646;-63
2024/01/13 04:19:56;;;;;;;2.22;1.45;;;;;;;16.75;30.38;102599.72;16101575;19;130587;-63
2024/01/13 04:25:18;;;;;;;1.85;1.20;;;;;;;16.73;30.48;102604.59;16106283;19;129949;-63
2024/01/13 04:30:39;;;;;;;1.90;1.23;;;;;;;16.71;30.27;102592.88;16097639;19;130635;-63
2024/01/13 04:36:02;;;;;;;1.98;1.23;;;;;;;16.70;30.24;102587.53;16100784;19;130961;-63
2024/01/13 04:41:24;;;;;;;1.77;1.20;;;;;;;16.69;30.02;102589.44;16103544;19;130923;-63
2024/01/13 04:46:46;;;;;;;2.17;1.23;;;;;;;16.68;30.33;102584.94;16103621;19;130102;-63
2024/01/13 04:52:08;;;;;;;1.80;1.10;;;;;;;16.66;30.20;102578.78;16103868;19;131056;-63
2024/01/13 04:57:31;;;;;;;1.52;1.00;;;;;;;16.65;30.55;102565.13;16116319;19;131121;-63
2024/01/13 05:02:54;;;;;;;1.77;1.15;;;;;;;16.63;30.48;102568.09;16112265;19;129358;-63
2024/01/13 05:08:18;;;;;;;2.88;1.30;;;;;;;16.61;30.42;102551.69;16112200;19;129961;-64
2024/01/13 05:13:40;;;;;;;1.63;1.30;;;;;;;16.59;30.65;102553.81;16110107;19;131585;-63
2024/01/13 05:19:02;;;;;;;1.40;1.10;;;;;;;16.59;30.62;102550.16;16116656;19;130966;-63
2024/01/13 05:24:25;;;;;;;1.63;1.15;;;;;;;16.57;30.52;102536.56;16115106;19;131602;-63
2024/01/13 05:29:47;;;;;;;1.92;1.02;;;;;;;16.57;30.42;102543.97;16113475;19;130295;-63
2024/01/13 05:35:09;;;;;;;1.70;1.15;;;;;;;16.55;30.53;102527.59;16114351;19;130950;-63
2024/01/13 05:40:31;;;;;;;1.65;1.20;;;;;;;16.56;30.56;102540.38;16111923;19;129778;-63
2024/01/13 05:45:53;;;;;;;1.38;1.02;;;;;;;16.56;30.35;102540.38;16115221;19;131389;-63
2024/01/13 05:51:15;;;;;;;1.45;1.00;;;;;;;16.57;30.60;102544.84;16113386;19;130353;-63
2024/01/13 05:56:37;;;;;;;1.58;1.05;;;;;;;16.58;30.30;102543.78;16110408;19;130761;-62
2024/01/13 06:01:59;;;;;;;1.55;1.05;;;;;;;16.58;30.59;102538.28;16111318;19;134903;-63
2024/01/13 06:07:21;;;;;;;1.40;1.00;;;;;;;16.57;30.50;102542.06;16110618;19;129721;-63
2024/01/13 06:12:59;;;;;;;0.87;0.57;;;;;;;16.69;30.32;102538.84;16112053;19;129700;-63
2024/01/13 06:18:21;;;;;;;1.00;0.85;;;;;;;16.84;30.33;102542.44;16110311;19;129824;-63
2024/01/13 06:23:45;;;;;;;1.23;0.80;;;;;;;17.04;30.31;102544.56;16109696;19;129799;-63
2024/01/13 06:29:08;;;;;;;1.45;0.93;;;;;;;17.27;30.23;102549.91;16104952;19;129394;-63
2024/01/13 06:34:30;;;;;;;1.02;0.70;;;;;;;17.50;30.12;102558.00;16108231;19;129338;-63
2024/01/13 06:39:52;;;;;;;0.60;0.60;;;;;;;17.74;29.66;102568.88;16111118;19;130289;-63
2024/01/13 06:45:14;;;;;;;1.23;0.65;;;;;;;17.95;29.36;102530.06;16110746;19;133315;-63
2024/01/13 06:50:36;;;;;;;0.98;0.60;;;;;;;18.15;29.07;102521.06;16109503;19;130774;-63
2024/01/13 06:56:11;;;;;;;1.70;0.85;;;;;;;18.29;29.35;102505.34;16108466;19;131507;-62
2024/01/13 07:01:33;;;;;;;1.00;0.68;;;;;;;18.35;29.20;102500.91;16107555;19;129677;-62
2024/01/13 07:06:55;;;;;;;0.82;0.50;;;;;;;18.43;28.97;102500.75;16104870;19;131010;-62
2024/01/13 07:12:17;;;;;;;0.90;0.70;;;;;;;18.50;28.96;102481.38;16109963;19;131226;-62
2024/01/13 07:17:39;;;;;;;0.90;0.60;;;;;;;18.56;28.76;102478.63;16108558;19;131330;-63
2024/01/13 07:23:02;;;;;;;0.95;0.70;;;;;;;18.61;28.79;102466.91;16102954;19;129425;-62
2024/01/13 07:28:23;;;;;;;1.13;0.80;;;;;;;18.61;28.97;102464.13;16104083;19;129705;-63
2024/01/13 07:33:45;;;;;;;0.80;0.75;;;;;;;18.60;28.51;102462.44;16103253;19;129421;-62
2024/01/13 07:39:09;;;;;;;1.20;0.88;;;;;;;18.55;28.77;102451.13;16100730;19;130805;-66
2024/01/13 07:44:31;;;;;;;0.75;0.70;;;;;;;18.50;29.15;102434.25;16104060;19;130709;-63
2024/01/13 07:49:53;;;;;;;6.05;0.80;;;;;;;18.45;28.80;102443.19;16102576;19;131503;-63
2024/01/13 07:55:15;;;;;;;6.07;1.17;;;;;;;18.35;29.14;102426.94;16105246;19;129741;-68
2024/01/13 08:00:37;;;;;;;3.00;1.10;;;;;;;18.32;28.86;102410.75;16101620;19;129665;-67
2024/01/13 08:05:59;;;;;;;5.63;0.82;;;;;;;18.31;29.46;102403.50;16107195;19;131274;-67
2024/01/13 08:11:21;;;;;;;2.13;1.42;;;;;;;18.45;29.66;102410.81;16103408;19;129660;-67
2024/01/13 08:16:58;;;;;;;3.78;0.90;;;;;;;18.71;29.58;102411.06;16106391;19;130101;-64
2024/01/13 08:22:20;;;;;;;2.03;0.90;;;;;;;19.07;29.54;102401.50;16108247;19;129893;-67
2024/01/13 08:27:42;;;;;;;4.63;1.00;;;;;;;19.42;28.90;102386.56;16103459;19;130481;-66
2024/01/13 08:33:07;;;;;;;8.45;1.00;;;;;;;19.67;28.77;102383.94;16117111;19;131119;-67
2024/01/13 08:38:29;;;;;;;2.50;1.27;;;;;;;19.77;28.78;102384.34;16112232;19;129710;-67
2024/01/13 08:43:51;;;;;;;6.30;1.02;;;;;;;19.80;28.90;102394.16;16116938;19;129526;-66
2024/01/13 08:49:13;;;;;;;3.95;1.08;;;;;;;19.79;28.69;102386.91;16117678;19;130733;-67
2024/01/13 08:54:36;;;;;;;4.65;1.20;;;;;;;19.83;28.88;102389.03;16117245;19;129890;-66
2024/01/13 08:59:58;;;;;;;3.63;0.95;;;;;;;19.77;29.01;102386.28;16117395;19;130356;-67
2024/01/13 09:05:20;;;;;;;0.85;0.70;;;;;;;19.68;29.08;102375.41;16116356;19;129581;-66
2024/01/13 09:10:42;;;;;;;2.78;0.98;;;;;;;19.74;29.35;102367.25;16114316;19;129377;-67
2024/01/13 09:16:04;;;;;;;6.30;1.30;;;;;;;19.87;29.29;102361.66;16115157;19;130977;-69
2024/01/13 09:21:26;;;;;;;6.07;1.40;;;;;;;20.07;28.75;102374.63;16127920;19;130380;-68
2024/01/13 09:27:01;;;;;;;2.53;1.10;;;;;;;20.34;28.69;102368.94;16123564;19;129635;-69
2024/01/13 09:32:23;;;;;;;2.15;1.10;;;;;;;20.55;28.56;102376.94;16119068;19;130033;-71
2024/01/13 09:37:45;;;;;;;3.13;1.33;;;;;;;20.75;27.93;102378.72;16123694;19;129466;-63
2024/01/13 09:43:36;;;;;;;10.88;2.00;;;;;;;20.93;28.21;102391.00;16116827;19;129813;-65
2024/01/13 09:49:01;;;;;;;16.92;1.70;;;;;;;21.04;27.68;102388.34;16122149;19;130861;-67
2024/01/13 09:54:28;;;;;;;8.63;1.92;;;;;;;21.14;27.80;102385.06;16119238;19;130924;-69
2024/01/13 09:59:51;;;;;;;13.55;2.08;;;;;;;21.21;27.77;102383.06;16115945;19;130498;-69
2024/01/13 10:05:13;;;;;;;12.80;2.05;;;;;;;21.38;27.58;102388.06;16111644;19;130066;-75
2024/01/13 10:10:37;;;;;;;15.60;1.98;;;;;;;21.40;27.29;102385.91;16117445;19;130700;-74
2024/01/13 10:15:59;;;;;;;10.82;2.10;;;;;;;21.43;26.99;102390.13;16116141;19;130100;-71
2024/01/13 10:21:22;;;;;;;17.33;1.90;;;;;;;21.40;27.34;102383.09;16117302;19;129921;-73
2024/01/13 10:26:55;;;;;;;7.13;1.70;;;;;;;21.38;27.13;102376.91;16112012;19;129422;-73
2024/01/13 10:32:17;;;;;;;9.73;1.70;;;;;;;21.32;27.15;102361.97;16115504;19;129534;-72
2024/01/13 10:37:39;;;;;;;7.00;1.50;;;;;;;21.28;27.04;102351.53;16108691;19;133386;-73
2024/01/13 10:43:05;;;;;;;12.60;2.08;;;;;;;21.24;27.59;102326.06;16107932;19;131245;-73
2024/01/13 10:48:46;;;;;;;6.97;1.77;;;;;;;21.16;27.30;102323.59;16108681;19;130424;-72
2024/01/13 10:54:08;;;;;;;5.22;1.63;;;;;;;21.10;27.19;102316.19;16109274;19;129390;-72
2024/01/13 10:59:32;;;;;;;7.68;1.40;;;;;;;21.06;27.19;102315.78;16111728;19;130761;-72
2024/01/13 11:04:56;;;;;;;4.55;1.77;;;;;;;21.03;27.40;102296.78;16111024;19;134210;-72
2024/01/13 11:10:28;;;;;;;6.70;1.70;;;;;;;21.03;27.64;102297.63;16114239;19;130041;-72
2024/01/13 11:15:58;;;;;;;3.45;1.50;;;;;;;21.03;27.11;102292.06;16110284;19;131809;-71
2024/01/13 11:21:29;;;;;;;5.50;1.40;;;;;;;21.05;27.13;102295.47;16105679;19;130129;-72
2024/01/13 11:27:04;;;;;;;2.60;1.30;;;;;;;21.06;27.43;102299.06;16110979;19;130196;-73
2024/01/13 11:32:28;;;;;;;8.43;1.40;;;;;;;21.08;27.55;102293.31;16107740;19;129541;-72
2024/01/13 11:37:54;;;;;;;5.18;1.48;;;;;;;21.08;27.18;102280.22;16110549;19;130957;-72
2024/01/13 11:43:23;;;;;;;6.45;1.48;;;;;;;21.11;27.31;102281.72;16106639;19;129479;-72
2024/01/13 11:48:46;;;;;;;6.28;1.80;;;;;;;21.09;27.28;102265.22;16105269;19;131183;-71
2024/01/13 11:54:08;;;;;;;5.30;1.70;;;;;;;21.06;26.78;102254.56;16105439;19;130121;-72
2024/01/13 11:59:30;;;;;;;3.95;1.80;;;;;;;21.04;26.84;102240.06;16107760;19;130320;-72
2024/01/13 12:04:52;;;;;;;3.50;1.80;;;;;;;21.02;27.09;102236.66;16105761;19;129124;-73
2024/01/13 12:10:14;;;;;;;3.45;1.55;;;;;;;21.00;27.03;102242.41;16103957;19;132470;-76
2024/01/13 12:15:37;;;;;;;5.75;1.75;;;;;;;21.00;27.09;102242.41;16113240;19;130259;-73
2024/01/13 12:21:03;;;;;;;3.05;1.30;;;;;;;21.01;27.42;102233.00;16108121;19;133207;-73
2024/01/13 12:26:29;;;;;;;3.45;1.20;;;;;;;21.02;27.30;102220.78;16107662;19;130461;-73
2024/01/13 12:31:51;;;;;;;9.23;1.92;;;;;;;21.02;27.25;102218.00;16098502;19;131097;-72
2024/01/13 12:37:13;;;;;;;6.70;1.98;;;;;;;20.98;26.90;102207.56;16099312;19;129859;-67
2024/01/13 12:42:39;;;;;;;5.85;1.58;;;;;;;20.97;27.19;102208.66;16098499;19;131210;-67
2024/01/13 12:48:02;;;;;;;3.00;1.50;;;;;;;20.98;27.36;102204.78;16096564;19;129481;-66
2024/01/13 12:53:27;;;;;;;3.92;1.58;;;;;;;20.97;27.24;102189.19;16097177;19;130425;-66
2024/01/13 12:58:49;;;;;;;7.65;1.73;;;;;;;20.95;27.29;102177.44;16097232;19;130379;-66
2024/01/13 13:04:11;;;;;;;5.22;1.50;;;;;;;20.95;27.69;102164.38;16100750;19;130361;-66
2024/01/13 13:09:36;;;;;;;3.88;1.48;;;;;;;20.96;27.30;102162.44;16103452;19;129872;-67
2024/01/13 13:14:59;;;;;;;7.28;1.48;;;;;;;20.95;27.86;102171.88;16109075;19;131226;-67
2024/01/13 13:20:33;;;;;;;5.18;1.45;;;;;;;20.95;27.59;102177.44;16117336;19;129692;-67
2024/01/13 13:25:55;;;;;;;3.80;1.10;;;;;;;20.98;27.75;102163.06;16114061;19;130601;-67
2024/01/13 13:31:17;;;;;;;4.45;1.52;;;;;;;21.03;28.00;102158.50;16117605;19;130718;-67
2024/01/13 13:36:40;;;;;;;9.18;1.65;;;;;;;21.10;27.64;102141.72;16110633;19;131020;-64
2024/01/13 13:42:02;;;;;;;7.80;1.58;;;;;;;21.14;27.74;102140.19;16108600;19;130139;-62
2024/01/13 13:47:26;;;;;;;11.73;2.05;;;;;;;21.16;27.46;102135.25;16109080;19;129765;-63
2024/01/13 13:52:51;;;;;;;27.17;3.47;;;;;;;21.20;27.79;102118.91;16112116;19;130014;-66
2024/01/13 13:58:13;;;;;;;67.90;4.90;;;;;;;21.20;27.91;102128.09;16112103;19;131216;-73
2024/01/13 14:03:35;;;;;;;45.17;4.40;;;;;;;21.10;28.05;102119.47;16115824;19;129879;-78
2024/01/13 14:08:57;;;;;;;40.83;4.35;;;;;;;20.99;28.34;102117.47;16115091;19;129580;-72
2024/01/13 14:14:19;;;;;;;31.23;3.63;;;;;;;20.96;28.58;102112.38;16111949;19;130937;-66
2024/01/13 14:19:41;;;;;;;27.60;3.15;;;;;;;20.95;28.63;102117.09;16109911;19;130781;-64
2024/01/13 14:25:03;;;;;;;20.23;4.45;;;;;;;20.87;28.06;102117.38;16106593;19;130517;-65
2024/01/13 14:30:35;;;;;;;21.13;4.40;;;;;;;20.81;28.12;102121.94;16108453;19;132011;-64
2024/01/13 14:35:59;;;;;;;24.25;5.00;;;;;;;20.78;28.13;102128.00;16104689;19;129568;-65
2024/01/13 14:41:21;;;;;;;28.15;4.47;;;;;;;20.70;27.79;102123.56;16107044;19;130563;-65
2024/01/13 14:46:43;;;;;;;27.08;5.80;;;;;;;20.69;28.08;102129.34;16111516;19;129851;-65
2024/01/13 14:52:05;;;;;;;20.60;5.30;;;;;;;20.71;27.55;102119.69;16107288;19;131560;-69
2024/01/13 14:57:27;;;;;;;18.98;4.70;;;;;;;20.80;27.58;102117.47;16108739;19;130575;-75
2024/01/13 15:02:49;;;;;;;16.92;4.00;;;;;;;20.97;27.38;102114.06;16112273;19;130193;-68
2024/01/13 15:08:11;;;;;;;18.05;4.53;;;;;;;21.12;27.40;102099.75;16114617;19;129658;-70
2024/01/13 15:13:33;;;;;;;18.02;4.50;;;;;;;21.18;27.37;102099.66;16112998;19;130043;-71
2024/01/13 15:18:56;;;;;;;14.95;4.32;;;;;;;21.18;26.87;102094.09;16112090;19;129328;-71
2024/01/13 15:24:18;;;;;;;16.90;4.03;;;;;;;21.22;27.12;102086.97;16117284;19;129753;-71
2024/01/13 15:29:40;;;;;;;20.80;3.53;;;;;;;21.29;27.23;102069.34;16110811;19;131454;-71
2024/01/13 15:35:05;;;;;;;12.25;3.13;;;;;;;21.37;27.04;102069.00;16113295;19;129472;-70
2024/01/13 15:40:35;;;;;;;8.38;2.80;;;;;;;21.41;27.36;102070.22;16107613;19;129516;-70
2024/01/13 15:45:57;;;;;;;9.05;3.35;;;;;;;21.44;27.06;102060.53;16104946;19;129676;-71
2024/01/13 15:51:19;;;;;;;9.85;2.95;;;;;;;21.45;26.85;102048.31;16112330;19;134185;-71
2024/01/13 15:56:41;;;;;;;13.48;2.80;;;;;;;21.41;27.22;102061.88;16108819;19;129779;-70
2024/01/13 16:02:03;;;;;;;8.70;2.30;;;;;;;21.39;27.08;102061.25;16110537;19;130155;-72
2024/01/13 16:07:25;;;;;;;12.80;2.78;;;;;;;21.32;27.33;102054.94;16113892;19;129945;-70
2024/01/13 16:12:48;;;;;;;15.27;2.63;;;;;;;21.22;27.28;102058.31;16110946;19;130920;-70
2024/01/13 16:18:11;;;;;;;21.30;2.58;;;;;;;21.11;27.18;102048.81;16105270;19;130456;-70
2024/01/13 16:23:33;;;;;;;9.48;2.80;;;;;;;20.99;27.89;102054.31;16111484;19;129822;-69
2024/01/13 16:28:55;;;;;;;8.55;2.33;;;;;;;20.93;27.66;102049.72;16104387;19;130432;-69
2024/01/13 16:34:17;;;;;;;16.05;2.88;;;;;;;20.96;27.49;102046.47;16102971;19;129564;-70
2024/01/13 16:39:40;;;;;;;16.00;3.10;;;;;;;21.08;27.56;102060.41;16102243;19;130934;-71
2024/01/13 16:45:03;;;;;;;13.57;2.80;;;;;;;21.19;27.83;102056.81;16108704;19;129415;-70
2024/01/13 16:50:25;;;;;;;14.10;2.22;;;;;;;21.33;27.84;102062.19;16115021;19;130971;-70
2024/01/13 16:55:49;;;;;;;6.55;2.38;;;;;;;21.47;27.58;102074.00;16122608;19;130318;-71
2024/01/13 17:01:11;;;;;;;12.73;2.97;;;;;;;21.60;27.63;102072.97;16119425;19;130398;-73
2024/01/13 17:06:33;;;;;;;11.90;2.28;;;;;;;21.69;27.70;102062.31;16130655;19;131186;-75
2024/01/13 17:11:58;;;;;;;14.57;2.60;;;;;;;21.74;27.70;102057.72;16170618;19;130266;-72
2024/01/13 17:17:20;;;;;;;11.75;2.38;;;;;;;21.74;27.85;102035.44;16150468;19;129275;-73
2024/01/13 17:22:43;;;;;;;7.72;2.40;;;;;;;21.76;28.49;102043.56;16133935;19;129400;-68
2024/01/13 17:28:05;;;;;;;14.35;2.45;;;;;;;21.76;28.66;102047.19;16143974;19;131159;-73
2024/01/13 17:33:29;;;;;;;11.85;2.30;;;;;;;21.76;28.39;102047.19;16177513;19;128894;-77
2024/01/13 17:38:51;;;;;;;7.53;2.13;;;;;;;21.71;28.38;102051.78;16193573;19;129073;-76
2024/01/13 17:44:13;;;;;;;8.98;2.28;;;;;;;21.61;28.82;102053.22;16184276;19;129082;-77
2024/01/13 17:49:35;;;;;;;7.00;2.08;;;;;;;21.51;28.93;102053.81;16180384;19;129655;-77
2024/01/13 17:54:58;;;;;;;7.32;2.42;;;;;;;21.41;29.50;102047.97;16176905;19;130356;-77
2024/01/13 18:00:20;;;;;;;4.50;1.85;;;;;;;21.34;29.50;102042.50;16183851;19;130150;-78
2024/01/13 18:05:42;;;;;;;7.05;2.05;;;;;;;21.36;29.40;102042.25;16187200;19;128918;-77
2024/01/13 18:11:04;;;;;;;5.80;2.25;;;;;;;21.50;29.29;102048.47;16195081;19;129302;-77
2024/01/13 18:16:26;;;;;;;5.28;2.00;;;;;;;21.69;29.37;102049.22;16185426;19;129856;-76
2024/01/13 18:21:48;;;;;;;7.05;2.22;;;;;;;21.88;29.34;102035.22;16190168;19;128728;-79
2024/01/13 18:27:10;;;;;;;10.38;2.67;;;;;;;22.04;29.15;102048.41;16185805;19;129397;-73
2024/01/13 18:32:32;;;;;;;10.00;2.28;;;;;;;22.19;29.11;102039.56;16133917;19;129846;-71
2024/01/13 18:37:54;;;;;;;6.78;2.20;;;;;;;22.28;29.24;102026.97;16129311;19;129333;-70
2024/01/13 18:43:16;;;;;;;5.45;2.17;;;;;;;22.28;29.34;102015.84;16120927;19;129990;-71
2024/01/13 18:48:39;;;;;;;4.18;2.20;;;;;;;22.26;29.20;102015.22;16116344;19;131367;-73
2024/01/13 18:54:03;;;;;;;7.63;2.72;;;;;;;22.24;29.09;102011.81;16111855;19;131586;-75
2024/01/13 18:59:26;;;;;;;13.05;3.00;;;;;;;22.22;28.96;101999.25;16116541;19;130755;-69
2024/01/13 19:04:48;;;;;;;9.80;3.92;;;;;;;22.14;28.95;101989.28;16100846;19;130973;-71
2024/01/13 19:10:10;;;;;;;10.60;3.22;;;;;;;22.00;28.89;101971.97;16100764;19;131148;-69
2024/01/13 19:15:32;;;;;;;11.00;2.72;;;;;;;21.91;29.06;101985.44;16101601;19;130774;-66
2024/01/13 19:20:54;;;;;;;16.15;3.33;;;;;;;21.81;29.21;101966.53;16099813;19;134041;-76
2024/01/13 19:26:17;;;;;;;12.85;2.70;;;;;;;21.74;28.94;101963.03;16111378;19;131086;-70
2024/01/13 19:31:39;;;;;;;10.60;3.25;;;;;;;21.78;29.07;101960.59;16115595;19;131233;-79
2024/01/13 19:37:01;;;;;;;12.60;2.53;;;;;;;21.86;29.37;101946.28;16124810;19;129921;-74
2024/01/13 19:42:23;;;;;;;12.45;3.50;;;;;;;21.94;29.10;101947.88;16122662;19;129781;-76
2024/01/13 19:47:45;;;;;;;11.43;2.70;;;;;;;21.99;28.69;101936.84;16120995;19;130121;-78
2024/01/13 19:53:07;;;;;;;6.18;2.78;;;;;;;22.08;28.71;101928.97;16124974;19;129446;-78
2024/01/13 19:58:29;;;;;;;8.75;2.85;;;;;;;22.17;28.54;101926.63;16121694;19;130807;-73
2024/01/13 20:03:51;;;;;;;6.75;2.22;;;;;;;22.29;28.27;101919.09;16119790;19;129705;-77
2024/01/13 20:09:13;;;;;;;10.48;2.17;;;;;;;22.39;28.08;101924.91;16123368;19;130020;-71
2024/01/13 20:14:36;;;;;;;10.50;2.55;;;;;;;22.43;28.39;101919.69;16116676;19;130659;-78
2024/01/13 20:19:58;;;;;;;9.65;2.80;;;;;;;22.44;28.18;101910.22;16118539;19;130145;-79
2024/01/13 20:25:20;;;;;;;31.17;3.95;;;;;;;22.41;28.12;101903.19;16143844;19;131207;-71
2024/01/13 20:30:42;;;;;;;32.42;4.35;;;;;;;22.35;27.98;101909.75;16128390;19;131415;-75
2024/01/13 20:36:04;;;;;;;28.80;4.10;;;;;;;22.25;28.33;101903.97;16137308;19;129513;-70
2024/01/13 20:41:27;;;;;;;23.60;4.22;;;;;;;22.14;28.45;101894.53;16146229;19;129780;-74
2024/01/13 20:46:49;;;;;;;16.48;3.70;;;;;;;22.17;28.45;101890.38;16154648;19;131399;-71
2024/01/13 20:52:11;;;;;;;16.23;3.42;;;;;;;22.20;28.53;101885.19;16169298;19;129684;-76
2024/01/13 20:57:33;;;;;;;11.38;3.30;;;;;;;22.23;28.40;101875.50;16184978;19;129633;-68
2024/01/13 21:02:55;;;;;;;16.67;3.38;;;;;;;22.19;28.38;101851.97;16121836;19;130057;-71
2024/01/13 21:08:17;;;;;;;17.85;3.33;;;;;;;22.15;28.51;101848.84;16127849;19;129641;-72
2024/01/13 21:13:39;;;;;;;13.38;2.75;;;;;;;22.09;28.61;101845.09;16192857;19;129622;-71
2024/01/13 21:19:01;;;;;;;12.82;4.07;;;;;;;21.98;28.31;101840.41;16161170;19;129306;-73
2024/01/13 21:24:23;;;;;;;11.23;3.85;;;;;;;21.85;28.39;101832.34;16123962;19;129373;-68
2024/01/13 21:29:45;;;;;;;15.38;4.38;;;;;;;21.72;28.34;101825.94;16112926;19;131535;-67
2024/01/13 21:35:10;;;;;;;17.85;4.10;;;;;;;21.61;28.59;101822.09;16111436;19;130987;-67
2024/01/13 21:40:32;;;;;;;18.98;4.00;;;;;;;21.48;28.87;101813.97;16109920;19;130182;-67
2024/01/13 21:45:54;;;;;;;17.20;4.57;;;;;;;21.37;29.05;101797.03;16117190;19;133251;-66
2024/01/13 21:51:17;;;;;;;13.18;4.30;;;;;;;21.25;29.03;101798.16;16116418;19;131098;-66
2024/01/13 21:56:39;;;;;;;9.95;3.50;;;;;;;21.14;28.92;101786.78;16114648;19;130694;-65
2024/01/13 22:02:07;;;;;;;10.35;3.28;;;;;;;21.00;29.11;101779.78;16112934;19;130359;-65
2024/01/13 22:07:29;;;;;;;14.57;3.10;;;;;;;20.83;29.60;101768.53;16118306;19;130197;-65
2024/01/13 22:12:54;;;;;;;14.70;3.50;;;;;;;20.69;29.82;101765.09;16115092;19;129406;-65
2024/01/13 22:18:16;;;;;;;14.73;3.87;;;;;;;20.58;29.42;101773.16;16106805;19;130390;-66
2024/01/13 22:23:39;;;;;;;11.55;4.00;;;;;;;20.50;29.41;101758.75;16110958;19;129547;-66
2024/01/13 22:29:04;;;;;;;10.63;3.97;;;;;;;20.42;29.48;101751.66;16105695;19;130279;-65
2024/01/13 22:34:26;;;;;;;8.27;4.22;;;;;;;20.34;29.64;101744.50;16109543;19;129702;-70
2024/01/13 22:39:48;;;;;;;8.45;3.60;;;;;;;20.23;29.51;101751.72;16112678;19;129551;-68
2024/01/13 22:45:10;;;;;;;11.68;4.30;;;;;;;20.16;29.82;101736.22;16109162;19;129914;-67
2024/01/13 22:50:32;;;;;;;15.32;3.60;;;;;;;20.10;29.87;101722.22;16109745;19;129523;-66
2024/01/13 22:55:55;;;;;;;10.43;4.40;;;;;;;20.03;30.01;101710.34;16111160;19;130889;-66
2024/01/13 23:01:17;;;;;;;10.32;3.92;;;;;;;19.93;29.84;101710.03;16112658;19;130996;-65
2024/01/13 23:06:39;;;;;;;8.07;4.35;;;;;;;19.83;29.68;101713.38;16110026;19;129526;-66
2024/01/13 23:12:04;;;;;;;10.70;4.50;;;;;;;19.75;29.76;101708.16;16106070;19;130627;-66
2024/01/13 23:17:27;;;;;;;13.25;5.40;;;;;;;19.65;29.82;101690.13;16107475;19;129708;-66
2024/01/13 23:22:49;;;;;;;7.07;3.90;;;;;;;19.58;30.20;101682.97;16109050;19;130015;-66
2024/01/13 23:28:13;;;;;;;8.30;4.18;;;;;;;19.51;29.75;101691.41;16109074;19;130440;-66
2024/01/13 23:33:35;;;;;;;7.60;3.80;;;;;;;19.47;30.01;101696.56;16109198;19;130441;-66
2024/01/13 23:38:57;;;;;;;11.48;4.30;;;;;;;19.43;29.94;101686.19;16108318;19;129331;-66
2024/01/13 23:44:19;;;;;;;8.30;4.10;;;;;;;19.36;30.15;101689.03;16108426;19;129757;-66
2024/01/13 23:49:41;;;;;;;12.27;5.65;;;;;;;19.32;29.46;101688.63;16102436;19;131297;-66
2024/01/13 23:55:07;;;;;;;8.73;4.45;;;;;;;19.22;30.20;101677.22;16104460;19;129812;-66
